Time;durP1;ratioP1;P1;durP2;ratioP2;P2;SDS_P1;SDS_P2;PMS_P1;PMS_P2;Temp;Humidity;BMP_temperature;BMP_pressure;BME280_temperature;BME280_humidity;BME280_pressure;Samples;Min_cycle;Max_cycle;Signal;HPM_P1;HPM_P2
2023/10/15 00:04:08;;;;;;;;;;;;;;;18.97;57.09;99836.75;10326583;28;886;-73
2023/10/15 00:09:04;;;;;;;;;;;;;;;18.97;57.00;99826.19;10326882;28;1913;-73
2023/10/15 00:14:03;;;;;;;;;;;;;;;18.98;57.01;99834.97;10325716;28;963;-73
2023/10/15 00:19:09;;;;;;;;;;;;;;;18.98;56.86;99843.75;10326049;28;907;-73
2023/10/15 00:24:06;;;;;;;;;;;;;;;18.97;56.82;99836.75;10326746;28;770;-72
2023/10/15 00:29:07;;;;;;;;;;;;;;;18.96;56.85;99829.75;10325387;28;1957;-73
2023/10/15 00:34:12;;;;;;;;;;;;;;;18.95;56.80;99830.69;10325644;28;902;-73
2023/10/15 00:39:19;;;;;;;;;;;;;;;18.94;56.76;99826.34;10325546;28;846;-73
2023/10/15 00:44:16;;;;;;;;;;;;;;;18.95;56.82;99821.91;10325490;28;1214;-72
2023/10/15 00:49:13;;;;;;;;;;;;;;;18.95;56.93;99822.75;10325680;28;1902;-72
2023/10/15 00:54:15;;;;;;;;;;;;;;;18.95;56.82;99817.47;10325303;28;794;-73
2023/10/15 00:59:17;;;;;;;;;;;;;;;18.94;56.93;99815.78;10325128;28;969;-73
2023/10/15 01:04:15;;;;;;;;;;;;;;;18.92;56.81;99812.34;10324999;28;874;-73
2023/10/15 01:09:27;;;;;;;;;;;;;;;18.92;56.75;99812.34;10325009;28;1975;-73
2023/10/15 01:14:31;;;;;;;;;;;;;;;18.90;56.83;99808.06;10324965;28;791;-72
2023/10/15 01:19:33;;;;;;;;;;;;;;;18.89;56.98;99801.94;10325425;28;966;-73
2023/10/15 01:24:30;;;;;;;;;;;;;;;18.90;56.94;99803.63;10324111;28;992;-73
2023/10/15 01:29:28;;;;;;;;;;;;;;;18.90;56.83;99800.13;10325120;28;1966;-73
2023/10/15 01:34:24;;;;;;;;;;;;;;;18.88;56.73;99799.34;10324554;28;862;-73
2023/10/15 01:39:30;;;;;;;;;;;;;;;18.88;56.77;99799.34;10325344;28;991;-72
2023/10/15 01:44:27;;;;;;;;;;;;;;;18.85;56.76;99786.28;10332035;28;887;-73
2023/10/15 01:49:33;;;;;;;;;;;;;;;18.85;56.86;99787.13;10331355;28;1983;-73
2023/10/15 01:54:31;;;;;;;;;;;;;;;18.85;56.82;99784.50;10332133;28;822;-73
2023/10/15 01:59:27;;;;;;;;;;;;;;;18.86;56.74;99788.00;10332158;28;866;-73
2023/10/15 02:04:26;;;;;;;;;;;;;;;18.85;56.68;99778.38;10331235;28;918;-73
2023/10/15 02:09:22;;;;;;;;;;;;;;;18.83;56.54;99781.91;10331336;28;1893;-73
2023/10/15 02:14:23;;;;;;;;;;;;;;;18.81;56.25;99783.78;10330947;28;874;-73
2023/10/15 02:24:34;;;;;;;;;;;;;;;18.78;56.54;99828.81;10331171;28;906;-73
2023/10/15 02:34:28;;;;;;;;;;;;;;;18.73;56.35;99837.84;10330789;28;900;-73
2023/10/15 02:39:24;;;;;;;;;;;;;;;18.72;56.23;99830.84;10330311;28;857;-73
2023/10/15 02:44:20;;;;;;;;;;;;;;;18.71;56.45;99823.88;10331042;28;838;-72
2023/10/15 02:49:17;;;;;;;;;;;;;;;18.69;56.50;99813.38;10302179;28;1985;-73
2023/10/15 02:54:24;;;;;;;;;;;;;;;18.72;56.82;99822.94;10288311;28;1593;-73
2023/10/15 02:59:21;;;;;;;;;;;;;;;18.71;56.90;99821.22;10288465;28;1196;-73
2023/10/15 03:04:32;;;;;;;;;;;;;;;18.71;56.86;99821.22;10288819;28;803;-72
2023/10/15 03:09:31;;;;;;;;;;;;;;;18.71;57.05;99824.72;10288796;28;1972;-73
2023/10/15 03:14:28;;;;;;;;;;;;;;;18.71;57.08;99824.72;10288449;28;807;-73
2023/10/15 03:19:24;;;;;;;;;;;;;;;18.72;57.07;99833.50;10287029;28;1058;-73
2023/10/15 03:24:22;;;;;;;;;;;;;;;18.72;56.85;99830.84;10288113;28;762;-73
2023/10/15 03:29:21;;;;;;;;;;;;;;;18.71;56.93;99839.72;10287962;28;1886;-73
2023/10/15 03:34:21;;;;;;;;;;;;;;;18.70;56.89;99837.97;10287123;28;907;-72
2023/10/15 03:44:31;;;;;;;;;;;;;;;18.71;56.99;99837.94;10286778;28;818;-73
2023/10/15 03:49:27;;;;;;;;;;;;;;;18.70;56.85;99835.34;10314702;28;1971;-73
2023/10/15 03:54:23;;;;;;;;;;;;;;;18.71;57.08;99842.34;10327521;28;961;-73
2023/10/15 03:59:19;;;;;;;;;;;;;;;18.70;57.02;99836.19;10326825;28;883;-73
2023/10/15 04:04:16;;;;;;;;;;;;;;;18.72;57.05;99844.06;10326257;28;853;-73
2023/10/15 04:09:15;;;;;;;;;;;;;;;18.74;57.03;99834.28;10326352;28;1947;-73
2023/10/15 04:14:30;;;;;;;;;;;;;;;18.72;56.93;99842.25;10326926;28;861;-73
2023/10/15 04:19:26;;;;;;;;;;;;;;;18.75;57.03;99843.94;10326695;28;822;-73
2023/10/15 04:24:36;;;;;;;;;;;;;;;18.79;56.59;99833.19;10326534;28;831;-73
2023/10/15 04:29:32;;;;;;;;;;;;;;;18.79;56.81;99833.19;10326567;28;1894;-73
2023/10/15 04:34:29;;;;;;;;;;;;;;;18.82;56.58;99832.19;10326572;28;1023;-73
2023/10/15 04:39:25;;;;;;;;;;;;;;;18.86;56.50;99828.44;10326050;28;857;-73
2023/10/15 04:44:31;;;;;;;;;;;;;;;18.88;56.47;99831.03;10326095;28;843;-73
2023/10/15 04:49:27;;;;;;;;;;;;;;;18.90;56.15;99831.81;10326273;28;1901;-73
2023/10/15 04:54:23;;;;;;;;;;;;;;;18.96;56.51;99818.31;10325269;28;875;-74
2023/10/15 04:59:19;;;;;;;;;;;;;;;18.93;56.20;99819.31;10323843;28;1125;-73
2023/10/15 05:04:16;;;;;;;;;;;;;;;18.93;56.29;99813.19;10323541;28;933;-72
2023/10/15 05:09:21;;;;;;;;;;;;;;;18.94;56.27;99812.25;10324880;28;1898;-73
2023/10/15 05:14:20;;;;;;;;;;;;;;;18.94;56.13;99817.53;10324958;28;889;-73
2023/10/15 05:19:19;;;;;;;;;;;;;;;18.93;56.26;99813.19;10330269;28;1073;-73
2023/10/15 05:24:18;;;;;;;;;;;;;;;18.92;55.94;99806.22;10332466;28;790;-73
2023/10/15 05:29:14;;;;;;;;;;;;;;;18.92;55.99;99807.06;10332514;28;1902;-73
2023/10/15 05:34:10;;;;;;;;;;;;;;;18.93;55.97;99808.75;10332353;28;857;-73
2023/10/15 05:39:09;;;;;;;;;;;;;;;18.96;55.86;99816.53;10331508;28;986;-74
2023/10/15 05:44:05;;;;;;;;;;;;;;;18.97;56.26;99817.41;10332174;28;923;-73
2023/10/15 05:49:01;;;;;;;;;;;;;;;18.99;56.09;99828.75;10330853;28;1906;-72
2023/10/15 05:53:57;;;;;;;;;;;;;;;18.96;56.31;99834.16;10331523;28;904;-73
2023/10/15 05:58:52;;;;;;;;;;;;;;;18.99;56.18;99837.53;10330245;28;901;-73
2023/10/15 06:03:48;;;;;;;;;;;;;;;18.97;56.37;99842.03;10331161;28;786;-68
2023/10/15 06:08:44;;;;;;;;;;;;;;;18.92;56.48;99838.75;10330813;28;1972;-69
2023/10/15 06:13:40;;;;;;;;;;;;;;;18.90;56.09;99845.88;10330749;28;890;-68
2023/10/15 06:18:36;;;;;;;;;;;;;;;18.87;55.83;99840.75;10330383;28;991;-68
2023/10/15 06:23:32;;;;;;;;;;;;;;;18.87;55.88;99838.09;10330327;28;968;-68
2023/10/15 06:28:28;;;;;;;;;;;;;;;18.88;55.17;99847.72;10328913;28;1905;-69
2023/10/15 06:33:24;;;;;;;;;;;;;;;18.88;55.33;99862.72;10329772;28;782;-68
2023/10/15 06:38:20;;;;;;;;;;;;;;;18.88;55.42;99862.72;10329632;28;894;-73
2023/10/15 06:43:16;;;;;;;;;;;;;;;18.91;55.62;99868.72;10329357;28;886;-72
2023/10/15 06:48:11;;;;;;;;;;;;;;;18.93;55.73;99880.06;10329123;28;1906;-72
2023/10/15 06:53:07;;;;;;;;;;;;;;;18.97;55.55;99875.53;10329631;28;786;-72
2023/10/15 06:58:03;;;;;;;;;;;;;;;18.94;55.76;99873.00;10328856;28;902;-72
2023/10/15 07:02:59;;;;;;;;;;;;;;;18.93;56.07;99876.59;10329164;28;796;-72
2023/10/15 07:07:58;;;;;;;;;;;;;;;18.91;55.67;99879.28;10328576;28;1902;-72
2023/10/15 07:12:54;;;;;;;;;;;;;;;18.90;55.86;99867.00;10328887;28;888;-72
2023/10/15 07:17:50;;;;;;;;;;;;;;;18.89;55.56;99883.81;10327412;28;1108;-73
2023/10/15 07:22:46;;;;;;;;;;;;;;;18.92;55.23;99882.81;10327768;28;863;-72
2023/10/15 07:27:42;;;;;;;;;;;;;;;18.94;55.37;99896.78;10328036;28;1897;-72
2023/10/15 07:32:39;;;;;;;;;;;;;;;18.97;55.40;99899.31;10327784;28;1028;-73
2023/10/15 07:37:35;;;;;;;;;;;;;;;18.96;55.47;99910.78;10327171;28;952;-72
2023/10/15 07:42:31;;;;;;;;;;;;;;;18.94;55.58;99923.19;10327458;28;915;-72
2023/10/15 07:47:27;;;;;;;;;;;;;;;18.98;55.68;99932.69;10326984;28;1909;-72
2023/10/15 07:52:24;;;;;;;;;;;;;;;18.96;55.75;99940.69;10327097;28;897;-72
2023/10/15 07:57:21;;;;;;;;;;;;;;;18.96;55.68;99942.47;10325957;28;946;-73
2023/10/15 08:02:17;;;;;;;;;;;;;;;18.99;55.66;99950.25;10326759;28;922;-72
2023/10/15 08:07:13;;;;;;;;;;;;;;;18.99;55.76;99956.41;10326146;28;1961;-72
2023/10/15 08:12:08;;;;;;;;;;;;;;;18.99;55.86;99960.81;10326179;28;781;-73
2023/10/15 08:17:04;;;;;;;;;;;;;;;18.99;55.94;99964.34;10324461;28;1215;-72
2023/10/15 08:22:00;;;;;;;;;;;;;;;19.01;55.73;99970.38;10327168;28;885;-71
2023/10/15 08:26:56;;;;;;;;;;;;;;;18.99;56.03;99977.56;10325826;28;1955;-72
2023/10/15 08:31:52;;;;;;;;;;;;;;;19.02;55.84;99980.06;10325650;28;830;-72
2023/10/15 08:36:48;;;;;;;;;;;;;;;19.04;55.78;99990.53;10326127;28;962;-72
2023/10/15 08:41:44;;;;;;;;;;;;;;;19.01;55.96;99996.81;10324856;28;1032;-70
2023/10/15 08:46:40;;;;;;;;;;;;;;;19.02;55.80;99997.66;10324521;28;1965;-71
2023/10/15 08:51:36;;;;;;;;;;;;;;;19.03;55.81;99999.41;10324798;28;905;-71
2023/10/15 08:56:32;;;;;;;;;;;;;;;19.04;55.97;100001.94;10325062;28;870;-72
2023/10/15 09:01:28;;;;;;;;;;;;;;;19.05;56.11;100003.69;10325579;28;837;-71
2023/10/15 09:06:24;;;;;;;;;;;;;;;19.05;55.82;100016.03;10325763;28;1897;-71
2023/10/15 09:11:19;;;;;;;;;;;;;;;19.00;56.18;100016.25;10325461;28;874;-71
2023/10/15 09:16:15;;;;;;;;;;;;;;;18.98;55.96;100022.50;10324734;28;902;-71
2023/10/15 09:21:23;;;;;;;;;;;;;;;18.93;55.88;100025.34;10325266;28;813;-71
2023/10/15 09:26:19;;;;;;;;;;;;;;;18.91;55.93;100032.47;10325205;28;833;-71
2023/10/15 09:31:15;;;;;;;;;;;;;;;18.88;56.03;100037.91;10324702;28;858;-72
2023/10/15 09:36:11;;;;;;;;;;;;;;;18.87;56.17;100046.75;10324948;28;857;-71
2023/10/15 09:41:07;;;;;;;;;;;;;;;18.82;56.24;100043.47;10324275;28;859;-71
2023/10/15 09:46:03;;;;;;;;;;;;;;;18.79;56.24;100055.00;10324204;28;1280;-71
2023/10/15 09:50:59;;;;;;;;;;;;;;;18.81;56.36;100057.56;10324657;28;1977;-72
2023/10/15 09:55:59;;;;;;;;;;;;;;;18.77;56.34;100072.69;10324611;28;856;-71
2023/10/15 10:05:56;;;;;;;;;;;;;;;18.59;56.06;100079.56;10331123;28;956;-79
2023/10/15 10:10:52;;;;;;;;;;;;;;;18.68;56.62;100080.09;10331785;28;1961;-73
2023/10/15 10:15:54;;;;;;;;;;;;;;;18.79;56.06;100088.47;10331361;28;869;-73
2023/10/15 10:20:50;;;;;;;;;;;;;;;18.66;56.33;100096.03;10330826;28;1633;-73
2023/10/15 10:25:46;;;;;;;;;;;;;;;18.72;56.31;100089.63;10311773;28;1501;-73
2023/10/15 10:30:42;;;;;;;;;;;;;;;18.71;56.47;100088.78;10330885;28;1898;-73
2023/10/15 10:35:38;;;;;;;;;;;;;;;18.65;57.06;100096.94;10331642;28;1002;-80
2023/10/15 10:40:33;;;;;;;;;;;;;;;18.65;56.99;100088.16;10330689;28;905;-78
2023/10/15 10:45:29;;;;;;;;;;;;;;;18.65;57.02;100088.16;10329300;28;1004;-77
2023/10/15 10:50:25;;;;;;;;;;;;;;;18.65;57.08;100093.44;10328810;28;1983;-79
2023/10/15 10:55:21;;;;;;;;;;;;;;;18.66;56.78;100100.44;10329522;28;893;-75
2023/10/15 11:00:17;;;;;;;;;;;;;;;18.64;56.99;100102.28;10329369;28;921;-75
2023/10/15 11:05:13;;;;;;;;;;;;;;;18.67;56.95;100094.22;10329242;28;791;-75
2023/10/15 11:10:09;;;;;;;;;;;;;;;18.66;57.03;100088.09;10328889;28;1901;-76
2023/10/15 11:15:08;;;;;;;;;;;;;;;18.73;56.50;100102.78;10328775;28;809;-73
2023/10/15 11:20:04;;;;;;;;;;;;;;;18.86;56.25;100100.47;10329508;28;826;-72
2023/10/15 11:25:00;;;;;;;;;;;;;;;18.89;56.75;100096.84;10322212;28;1096;-71
2023/10/15 11:29:56;;;;;;;;;;;;;;;18.86;57.21;100113.69;10327955;28;1898;-72
2023/10/15 11:34:52;;;;;;;;;;;;;;;18.83;56.42;100111.19;10327856;28;786;-72
2023/10/15 11:39:48;;;;;;;;;;;;;;;18.78;56.44;100110.50;10310060;28;1428;-72
2023/10/15 11:44:44;;;;;;;;;;;;;;;18.76;56.01;100117.66;10328053;28;939;-72
2023/10/15 11:49:43;;;;;;;;;;;;;;;18.74;56.15;100119.47;10327435;28;1982;-76
2023/10/15 11:54:39;;;;;;;;;;;;;;;18.70;56.61;100117.88;10327826;28;834;-74
2023/10/15 11:59:38;;;;;;;;;;;;;;;18.64;56.17;100120.78;10326314;28;893;-74
2023/10/15 12:04:34;;;;;;;;;;;;;;;18.65;56.14;100106.63;10327398;28;951;-74
2023/10/15 12:09:32;;;;;;;;;;;;;;;18.66;56.29;100124.22;10326417;28;1957;-74
2023/10/15 12:14:28;;;;;;;;;;;;;;;18.66;55.99;100116.28;10325732;28;1113;-74
2023/10/15 12:19:24;;;;;;;;;;;;;;;18.60;56.48;100133.22;10327178;28;885;-75
2023/10/15 12:24:20;;;;;;;;;;;;;;;18.53;56.29;100122.06;10324709;28;893;-75
2023/10/15 12:29:17;;;;;;;;;;;;;;;18.45;56.16;100124.16;10323588;28;1901;-78
2023/10/15 12:34:13;;;;;;;;;;;;;;;18.57;55.89;100123.63;10325305;28;778;-79
2023/10/15 12:39:09;;;;;;;;;;;;;;;18.46;55.91;100132.91;10325028;28;901;-75
2023/10/15 12:44:09;;;;;;;;;;;;;;;18.46;56.29;100133.78;10325172;28;818;-77
2023/10/15 12:49:05;;;;;;;;;;;;;;;18.46;56.30;100139.06;10325238;28;1913;-75
2023/10/15 12:54:03;;;;;;;;;;;;;;;18.61;56.25;100140.22;10325805;28;779;-75
2023/10/15 12:58:59;;;;;;;;;;;;;;;18.83;55.50;100140.25;10324957;28;774;-75
2023/10/15 13:03:57;;;;;;;;;;;;;;;18.90;55.61;100148.78;10324688;28;906;-74
2023/10/15 13:08:53;;;;;;;;;;;;;;;18.86;55.64;100140.09;10323667;28;1902;-74
2023/10/15 13:13:49;;;;;;;;;;;;;;;19.05;54.97;100141.06;10324835;28;922;-73
2023/10/15 13:18:46;;;;;;;;;;;;;;;18.93;55.67;100140.72;10321550;28;1147;-74
2023/10/15 13:23:41;;;;;;;;;;;;;;;18.96;55.70;100141.44;10324257;28;803;-74
2023/10/15 13:28:39;;;;;;;;;;;;;;;18.90;55.84;100152.28;10324719;28;1905;-73
2023/10/15 13:33:36;;;;;;;;;;;;;;;19.09;54.92;100155.00;10324855;28;945;-74
2023/10/15 13:38:33;;;;;;;;;;;;;;;19.33;54.49;100154.88;10330791;28;860;-73
2023/10/15 13:43:29;;;;;;;;;;;;;;;19.14;55.02;100158.31;10332139;28;795;-73
2023/10/15 13:48:25;;;;;;;;;;;;;;;19.53;54.27;100170.75;10331895;28;1914;-74
2023/10/15 13:53:21;;;;;;;;;;;;;;;19.64;53.92;100167.63;10332307;28;847;-73
2023/10/15 13:58:17;;;;;;;;;;;;;;;19.75;53.99;100185.69;10332931;28;908;-74
2023/10/15 14:03:15;;;;;;;;;;;;;;;19.83;53.84;100179.16;10331261;28;894;-73
2023/10/15 14:08:11;;;;;;;;;;;;;;;19.99;53.64;100186.38;10331723;28;1956;-72
2023/10/15 14:13:06;;;;;;;;;;;;;;;20.06;53.36;100190.44;10331120;28;837;-74
2023/10/15 14:18:05;;;;;;;;;;;;;;;20.18;53.39;100192.56;10331736;28;845;-74
2023/10/15 14:23:01;;;;;;;;;;;;;;;20.01;53.67;100197.75;10331472;28;914;-74
2023/10/15 14:27:56;;;;;;;;;;;;;;;19.65;54.45;100203.72;10330422;28;1965;-74
2023/10/15 14:32:52;;;;;;;;;;;;;;;19.74;54.34;100207.78;10329020;28;1200;-74
2023/10/15 14:37:48;;;;;;;;;;;;;;;19.99;53.52;100204.88;10329797;28;830;-74
2023/10/15 14:42:45;;;;;;;;;;;;;;;19.83;53.92;100204.72;10328848;28;979;-74
2023/10/15 14:47:41;;;;;;;;;;;;;;;20.14;53.53;100207.69;10328650;28;1906;-74
2023/10/15 14:52:36;;;;;;;;;;;;;;;20.09;53.64;100214.97;10329040;28;808;-74
2023/10/15 14:57:33;;;;;;;;;;;;;;;19.80;54.49;100233.94;10329584;28;767;-74
2023/10/15 15:02:29;;;;;;;;;;;;;;;19.58;54.89;100231.38;10328529;28;814;-73
2023/10/15 15:07:26;;;;;;;;;;;;;;;19.55;54.81;100228.84;10328648;28;1971;-71
2023/10/15 15:12:22;;;;;;;;;;;;;;;19.47;54.98;100234.47;10327907;28;905;-75
2023/10/15 15:17:18;;;;;;;;;;;;;;;19.39;55.12;100244.50;10328191;28;847;-74
2023/10/15 15:22:14;;;;;;;;;;;;;;;19.36;55.09;100250.78;10328024;28;877;-75
2023/10/15 15:27:11;;;;;;;;;;;;;;;19.36;55.15;100252.53;10327980;28;1952;-75
2023/10/15 15:32:07;;;;;;;;;;;;;;;19.48;54.59;100250.25;10327254;28;945;-75
2023/10/15 15:37:03;;;;;;;;;;;;;;;19.33;55.30;100240.31;10326837;28;983;-74
2023/10/15 15:41:58;;;;;;;;;;;;;;;19.32;55.32;100243.03;10327027;28;798;-75
2023/10/15 15:46:54;;;;;;;;;;;;;;;19.26;55.39;100245.00;10326743;28;1918;-74
2023/10/15 15:51:50;;;;;;;;;;;;;;;19.23;55.55;100249.53;10327276;28;881;-75
2023/10/15 15:56:46;;;;;;;;;;;;;;;19.19;55.71;100247.97;10327382;28;929;-75
2023/10/15 16:01:43;;;;;;;;;;;;;;;19.17;55.64;100245.38;10326850;28;865;-75
2023/10/15 16:06:39;;;;;;;;;;;;;;;19.16;55.63;100246.31;10326442;28;1955;-75
2023/10/15 16:11:35;;;;;;;;;;;;;;;19.12;55.73;100250.00;10325920;28;841;-75
2023/10/15 16:16:31;;;;;;;;;;;;;;;19.13;55.87;100262.28;10326113;28;936;-75
2023/10/15 16:21:26;;;;;;;;;;;;;;;19.13;55.90;100270.22;10325801;28;794;-75
2023/10/15 16:26:23;;;;;;;;;;;;;;;19.09;55.79;100281.81;10326073;28;857;-75
2023/10/15 16:31:19;;;;;;;;;;;;;;;19.10;55.87;100280.03;10325607;28;1878;-75
2023/10/15 16:36:15;;;;;;;;;;;;;;;19.11;55.67;100280.00;10325316;28;853;-75
2023/10/15 16:41:11;;;;;;;;;;;;;;;19.08;55.94;100289.84;10325152;28;851;-73
2023/10/15 16:46:07;;;;;;;;;;;;;;;19.07;55.67;100303.94;10325988;28;1060;-75
2023/10/15 16:51:03;;;;;;;;;;;;;;;19.09;55.88;100315.31;10326138;28;1967;-75
2023/10/15 16:55:59;;;;;;;;;;;;;;;19.07;55.88;100309.22;10325816;28;818;-76
2023/10/15 17:00:55;;;;;;;;;;;;;;;19.02;55.72;100315.56;10325939;28;825;-75
2023/10/15 17:05:50;;;;;;;;;;;;;;;19.03;55.87;100319.94;10325550;28;902;-76
2023/10/15 17:10:46;;;;;;;;;;;;;;;19.04;55.72;100329.56;10326558;28;1886;-78
2023/10/15 17:15:42;;;;;;;;;;;;;;;19.01;55.88;100329.69;10333497;28;804;-78
2023/10/15 17:20:38;;;;;;;;;;;;;;;19.00;55.81;100342.97;10333283;28;766;-78
2023/10/15 17:25:37;;;;;;;;;;;;;;;19.01;55.57;100342.03;10333045;28;834;-78
2023/10/15 17:30:33;;;;;;;;;;;;;;;19.00;55.80;100348.25;10332739;28;1890;-78
2023/10/15 17:35:29;;;;;;;;;;;;;;;18.98;55.80;100350.09;10332315;28;773;-78
2023/10/15 17:40:26;;;;;;;;;;;;;;;18.98;55.57;100360.66;10331990;28;922;-78
2023/10/15 17:45:24;;;;;;;;;;;;;;;18.97;55.70;100353.66;10332639;28;869;-79
2023/10/15 17:50:20;;;;;;;;;;;;;;;18.93;55.54;100358.19;10327695;28;1982;-74
2023/10/15 17:55:16;;;;;;;;;;;;;;;18.93;55.50;100355.53;10331643;28;787;-74
2023/10/15 18:00:15;;;;;;;;;;;;;;;18.95;55.42;100358.13;10331058;28;862;-74
2023/10/15 18:05:11;;;;;;;;;;;;;;;18.94;55.39;100366.97;10331720;28;886;-75
2023/10/15 18:10:08;;;;;;;;;;;;;;;18.91;55.08;100367.09;10331233;28;1886;-74
2023/10/15 18:15:08;;;;;;;;;;;;;;;18.91;55.02;100370.59;10330909;28;871;-74
2023/10/15 18:20:04;;;;;;;;;;;;;;;18.92;55.00;100376.75;10331197;28;849;-75
2023/10/15 18:25:00;;;;;;;;;;;;;;;18.90;55.14;100379.44;10329209;28;774;-74
2023/10/15 18:29:56;;;;;;;;;;;;;;;18.89;55.21;100387.41;10330795;28;1894;-75
2023/10/15 18:34:52;;;;;;;;;;;;;;;18.91;54.99;100386.44;10330125;28;922;-75
2023/10/15 18:39:48;;;;;;;;;;;;;;;18.91;54.97;100401.44;10329857;28;913;-76
2023/10/15 18:44:46;;;;;;;;;;;;;;;18.88;54.79;100407.69;10329301;28;939;-74
2023/10/15 18:49:42;;;;;;;;;;;;;;;18.88;54.66;100407.69;10328596;28;1902;-81
2023/10/15 18:54:38;;;;;;;;;;;;;;;18.89;54.76;100414.72;10327048;28;801;-80
2023/10/15 18:59:34;;;;;;;;;;;;;;;18.89;54.42;100417.34;10329483;28;861;-80
2023/10/15 19:04:29;;;;;;;;;;;;;;;18.85;54.59;100413.09;10328585;28;996;-74
2023/10/15 19:09:25;;;;;;;;;;;;;;;18.89;54.62;100414.72;10329303;28;1959;-75
2023/10/15 19:14:21;;;;;;;;;;;;;;;18.89;54.63;100409.44;10328941;28;807;-74
2023/10/15 19:19:17;;;;;;;;;;;;;;;18.89;54.69;100420.00;10329306;28;810;-74
2023/10/15 19:24:13;;;;;;;;;;;;;;;18.88;54.71;100420.91;10328771;28;932;-75
2023/10/15 19:29:12;;;;;;;;;;;;;;;18.88;54.49;100423.53;10328227;28;1893;-75
2023/10/15 19:34:09;;;;;;;;;;;;;;;18.92;54.37;100435.72;10326186;28;1136;-79
2023/10/15 19:39:07;;;;;;;;;;;;;;;18.89;54.70;100438.50;10328078;28;898;-79
2023/10/15 19:44:03;;;;;;;;;;;;;;;18.88;54.67;100452.59;10327300;28;927;-79
2023/10/15 19:48:59;;;;;;;;;;;;;;;18.91;54.49;100452.47;10326704;28;1991;-82
2023/10/15 19:53:55;;;;;;;;;;;;;;;18.83;54.99;100451.91;10326745;28;779;-83
2023/10/15 19:58:51;;;;;;;;;;;;;;;18.79;55.14;100451.16;10327064;28;783;-82
2023/10/15 20:03:48;;;;;;;;;;;;;;;18.76;55.22;100459.19;10327021;28;908;-81
2023/10/15 20:08:45;;;;;;;;;;;;;;;18.74;55.13;100465.41;10325939;28;1938;-82
2023/10/15 20:13:42;;;;;;;;;;;;;;;18.75;55.30;100462.72;10326354;28;886;-82
2023/10/15 20:18:39;;;;;;;;;;;;;;;18.75;55.31;100459.25;10325837;28;848;-82
2023/10/15 20:23:35;;;;;;;;;;;;;;;18.75;55.17;100465.38;10326195;28;826;-83
2023/10/15 20:28:31;;;;;;;;;;;;;;;18.74;55.39;100466.28;10325695;28;1894;-82
2023/10/15 20:33:27;;;;;;;;;;;;;;;18.73;55.32;100469.84;10326508;28;809;-82
2023/10/15 20:38:23;;;;;;;;;;;;;;;18.73;55.38;100471.59;10324629;28;977;-81
2023/10/15 20:43:19;;;;;;;;;;;;;;;18.75;55.36;100469.81;10325549;28;944;-82
2023/10/15 20:48:15;;;;;;;;;;;;;;;18.76;55.24;100466.25;10306669;28;1967;-82
2023/10/15 20:53:11;;;;;;;;;;;;;;;18.75;55.23;100465.38;10324466;28;924;-83
2023/10/15 20:58:06;;;;;;;;;;;;;;;18.75;55.24;100464.53;10325427;28;873;-82
2023/10/15 21:03:04;;;;;;;;;;;;;;;18.73;55.17;100454.00;10324898;28;842;-81
2023/10/15 21:08:05;;;;;;;;;;;;;;;18.72;55.38;100444.34;10324871;28;1956;-83
2023/10/15 21:13:01;;;;;;;;;;;;;;;18.71;55.33;100452.31;10322536;28;1139;-83
2023/10/15 21:17:58;;;;;;;;;;;;;;;18.70;55.32;100445.31;10324854;28;790;-82
2023/10/15 21:22:55;;;;;;;;;;;;;;;18.70;55.27;100450.59;10324595;28;782;-83
2023/10/15 21:27:51;;;;;;;;;;;;;;;18.70;55.39;100446.16;10324852;28;1890;-82
2023/10/15 21:32:47;;;;;;;;;;;;;;;18.72;55.24;100451.41;10324257;28;998;-83
2023/10/15 21:37:43;;;;;;;;;;;;;;;18.72;55.13;100454.91;10324922;28;863;-83
2023/10/15 21:42:39;;;;;;;;;;;;;;;18.71;55.21;100452.31;10323949;28;1304;-82
2023/10/15 21:47:35;;;;;;;;;;;;;;;18.70;55.40;100463.78;10323538;28;1902;-81
2023/10/15 21:52:31;;;;;;;;;;;;;;;18.68;55.17;100455.06;10323746;28;821;-82
2023/10/15 21:57:27;;;;;;;;;;;;;;;18.66;55.28;100454.28;10326298;28;933;-82
2023/10/15 22:02:23;;;;;;;;;;;;;;;18.66;55.24;100455.13;10331773;28;880;-82
2023/10/15 22:07:19;;;;;;;;;;;;;;;18.68;55.20;100450.66;10331287;28;1898;-82
2023/10/15 22:12:17;;;;;;;;;;;;;;;18.69;55.34;100454.16;10330884;28;898;-82
2023/10/15 22:17:18;;;;;;;;;;;;;;;18.69;55.24;100440.94;10330871;28;859;-82
2023/10/15 22:22:14;;;;;;;;;;;;;;;18.67;55.44;100433.06;10330532;28;817;-81
2023/10/15 22:27:15;;;;;;;;;;;;;;;18.65;55.32;100431.41;10330772;28;1963;-82
2023/10/15 22:32:11;;;;;;;;;;;;;;;18.65;55.43;100431.41;10330123;28;785;-82
2023/10/15 22:37:07;;;;;;;;;;;;;;;18.64;55.57;100427.91;10330849;28;802;-82
2023/10/15 22:42:06;;;;;;;;;;;;;;;18.64;55.30;100424.41;10329397;28;904;-82
2023/10/15 22:47:05;;;;;;;;;;;;;;;18.66;55.26;100422.59;10329788;28;1906;-82
2023/10/15 22:52:01;;;;;;;;;;;;;;;18.65;55.31;100428.75;10329726;28;805;-82
2023/10/15 22:56:57;;;;;;;;;;;;;;;18.63;55.40;100423.56;10329505;28;908;-82
2023/10/15 23:01:53;;;;;;;;;;;;;;;18.62;55.34;100427.09;10329111;28;938;-82
2023/10/15 23:06:48;;;;;;;;;;;;;;;18.64;55.48;100429.69;10329065;28;1902;-74
2023/10/15 23:11:45;;;;;;;;;;;;;;;18.66;55.42;100433.16;10328507;28;942;-73
2023/10/15 23:16:41;;;;;;;;;;;;;;;18.65;55.44;100426.97;10328705;28;855;-77
2023/10/15 23:21:45;;;;;;;;;;;;;;;18.65;55.37;100431.41;10329245;28;895;-72
2023/10/15 23:26:42;;;;;;;;;;;;;;;18.63;55.51;100428.84;10328385;28;862;-74
2023/10/15 23:31:40;;;;;;;;;;;;;;;18.60;55.37;100426.28;10328133;28;1956;-75
2023/10/15 23:36:36;;;;;;;;;;;;;;;18.58;55.65;100429.00;10328086;28;848;-74
2023/10/15 23:41:33;;;;;;;;;;;;;;;18.59;55.37;100422.78;10327862;28;1035;-74
2023/10/15 23:46:31;;;;;;;;;;;;;;;18.68;55.24;100416.31;10327901;28;1080;-75
2023/10/15 23:51:28;;;;;;;;;;;;;;;18.66;54.98;100422.59;10327214;28;1918;-73
2023/10/15 23:56:24;;;;;;;;;;;;;;;18.59;55.33;100422.78;10327089;28;985;-71
